sensor_id;sensor_type;location;lat;lon;timestamp;pressure;altitude;pressure_sealevel;temperature;humidity
67099;BME280;54288;53.046;5.668;2023-02-03T00:01:11;102308.91;;;8.12;100.00
67099;BME280;54288;53.046;5.668;2023-02-03T00:03:37;102308.03;;;8.12;100.00
67099;BME280;54288;53.046;5.668;2023-02-03T00:06:04;102293.22;;;8.09;100.00
67099;BME280;54288;53.046;5.668;2023-02-03T00:08:30;102289.72;;;8.07;100.00
67099;BME280;54288;53.046;5.668;2023-02-03T00:10:58;102289.75;;;8.10;100.00
67099;BME280;54288;53.046;5.668;2023-02-03T00:13:24;102286.28;;;8.10;100.00
67099;BME280;54288;53.046;5.668;2023-02-03T00:15:51;102298.38;;;8.05;100.00
67099;BME280;54288;53.046;5.668;2023-02-03T00:18:17;102309.72;;;8.05;100.00
67099;BME280;54288;53.046;5.668;2023-02-03T00:20:43;102299.25;;;8.04;100.00
67099;BME280;54288;53.046;5.668;2023-02-03T00:23:10;102312.31;;;8.05;100.00
67099;BME280;54288;53.046;5.668;2023-02-03T00:25:38;102308.88;;;8.09;100.00
67099;BME280;54288;53.046;5.668;2023-02-03T00:28:05;102306.28;;;8.11;100.00
67099;BME280;54288;53.046;5.668;2023-02-03T00:30:33;102295.81;;;8.09;100.00
67099;BME280;54288;53.046;5.668;2023-02-03T00:32:59;102295.91;;;8.17;100.00
67099;BME280;54288;53.046;5.668;2023-02-03T00:35:26;102287.16;;;8.12;100.00
67099;BME280;54288;53.046;5.668;2023-02-03T00:37:56;102275.84;;;8.13;100.00
67099;BME280;54288;53.046;5.668;2023-02-03T00:40:27;102279.34;;;8.12;100.00
67099;BME280;54288;53.046;5.668;2023-02-03T00:42:55;102291.53;;;8.14;100.00
67099;BME280;54288;53.046;5.668;2023-02-03T00:45:22;102287.13;;;8.10;100.00
67099;BME280;54288;53.046;5.668;2023-02-03T00:47:48;102279.31;;;8.09;100.00
67099;BME280;54288;53.046;5.668;2023-02-03T00:50:15;102275.88;;;8.11;100.00
67099;BME280;54288;53.046;5.668;2023-02-03T00:52:41;102261.06;;;8.12;100.00
67099;BME280;54288;53.046;5.668;2023-02-03T00:55:07;102262.84;;;8.14;100.00
67099;BME280;54288;53.046;5.668;2023-02-03T00:57:33;102245.38;;;8.10;100.00
67099;BME280;54288;53.046;5.668;2023-02-03T00:59:59;102244.47;;;8.04;100.00
67099;BME280;54288;53.046;5.668;2023-02-03T01:02:25;102253.06;;;7.97;100.00
67099;BME280;54288;53.046;5.668;2023-02-03T01:04:51;102254.75;;;7.95;100.00
67099;BME280;54288;53.046;5.668;2023-02-03T01:07:17;102266.91;;;7.91;100.00
67099;BME280;54288;53.046;5.668;2023-02-03T01:09:43;102266.88;;;7.88;100.00
67099;BME280;54288;53.046;5.668;2023-02-03T01:12:09;102256.50;;;7.93;100.00
67099;BME280;54288;53.046;5.668;2023-02-03T01:14:35;102258.25;;;7.95;100.00
67099;BME280;54288;53.046;5.668;2023-02-03T01:17:03;102246.09;;;7.97;100.00
67099;BME280;54288;53.046;5.668;2023-02-03T01:19:29;102229.59;;;7.98;100.00
67099;BME280;54288;53.046;5.668;2023-02-03T01:21:55;102249.69;;;8.04;100.00
67099;BME280;54288;53.046;5.668;2023-02-03T01:24:21;102256.59;;;8.00;100.00
67099;BME280;54288;53.046;5.668;2023-02-03T01:26:47;102281.91;;;8.07;100.00
67099;BME280;54288;53.046;5.668;2023-02-03T01:29:13;102250.59;;;8.07;100.00
67099;BME280;54288;53.046;5.668;2023-02-03T01:31:40;102267.19;;;8.12;100.00
67099;BME280;54288;53.046;5.668;2023-02-03T01:34:11;102279.34;;;8.13;100.00
67099;BME280;54288;53.046;5.668;2023-02-03T01:36:38;102256.75;;;8.12;100.00
67099;BME280;54288;53.046;5.668;2023-02-03T01:39:04;102248.06;;;8.15;100.00
67099;BME280;54288;53.046;5.668;2023-02-03T01:41:34;102259.38;;;8.15;100.00
67099;BME280;54288;53.046;5.668;2023-02-03T01:44:30;102240.28;;;8.16;100.00
67099;BME280;54288;53.046;5.668;2023-02-03T01:46:50;102232.38;;;8.12;100.00
67099;BME280;54288;53.046;5.668;2023-02-03T01:49:24;102249.78;;;8.14;100.00
67099;BME280;54288;53.046;5.668;2023-02-03T01:51:53;102228.91;;;8.11;100.00
67099;BME280;54288;53.046;5.668;2023-02-03T01:54:26;102232.31;;;8.07;100.00
67099;BME280;54288;53.046;5.668;2023-02-03T01:56:58;102222.75;;;8.06;100.00
67099;BME280;54288;53.046;5.668;2023-02-03T01:59:28;102223.63;;;8.08;100.00
67099;BME280;54288;53.046;5.668;2023-02-03T02:01:57;102230.59;;;8.06;100.00
67099;BME280;54288;53.046;5.668;2023-02-03T02:04:42;102232.28;;;8.03;100.00
67099;BME280;54288;53.046;5.668;2023-02-03T02:07:11;102240.03;;;7.98;100.00
67099;BME280;54288;53.046;5.668;2023-02-03T02:09:40;102230.47;;;7.97;100.00
67099;BME280;54288;53.046;5.668;2023-02-03T02:12:10;102225.25;;;7.97;100.00
67099;BME280;54288;53.046;5.668;2023-02-03T02:14:37;102237.44;;;7.97;100.00
67099;BME280;54288;53.046;5.668;2023-02-03T02:17:23;102231.28;;;7.95;100.00
67099;BME280;54288;53.046;5.668;2023-02-03T02:37:03;102233.16;;;8.05;100.00
67099;BME280;54288;53.046;5.668;2023-02-03T02:45:25;102226.22;;;8.05;100.00
67099;BME280;54288;53.046;5.668;2023-02-03T02:48:04;102212.25;;;8.03;100.00
67099;BME280;54288;53.046;5.668;2023-02-03T02:50:39;102217.53;;;8.06;100.00
67099;BME280;54288;53.046;5.668;2023-02-03T02:53:08;102214.94;;;8.06;100.00
67099;BME280;54288;53.046;5.668;2023-02-03T02:55:39;102204.44;;;8.03;100.00
67099;BME280;54288;53.046;5.668;2023-02-03T02:58:11;102191.47;;;8.08;100.00
67099;BME280;54288;53.046;5.668;2023-02-03T03:00:39;102181.00;;;8.06;100.00
67099;BME280;54288;53.046;5.668;2023-02-03T03:03:20;102175.72;;;8.00;100.00
67099;BME280;54288;53.046;5.668;2023-02-03T03:06:05;102208.78;;;8.04;100.00
67099;BME280;54288;53.046;5.668;2023-02-03T03:08:54;102185.31;;;8.01;100.00
67099;BME280;54288;53.046;5.668;2023-02-03T03:11:46;102187.03;;;8.01;100.00
67099;BME280;54288;53.046;5.668;2023-02-03T03:14:35;102179.19;;;8.01;100.00
67099;BME280;54288;53.046;5.668;2023-02-03T03:20:15;102192.25;;;8.02;100.00
67099;BME280;54288;53.046;5.668;2023-02-03T03:23:00;102195.78;;;8.06;100.00
67099;BME280;54288;53.046;5.668;2023-02-03T03:25:39;102182.72;;;8.04;100.00
67099;BME280;54288;53.046;5.668;2023-02-03T03:28:19;102201.88;;;8.06;100.00
67099;BME280;54288;53.046;5.668;2023-02-03T03:30:49;102180.16;;;8.07;100.00
67099;BME280;54288;53.046;5.668;2023-02-03T03:33:15;102195.81;;;8.09;100.00
67099;BME280;54288;53.046;5.668;2023-02-03T03:41:40;102187.16;;;8.11;100.00
67099;BME280;54288;53.046;5.668;2023-02-03T03:44:16;102188.94;;;8.14;100.00
67099;BME280;54288;53.046;5.668;2023-02-03T03:46:55;102187.16;;;8.11;100.00
67099;BME280;54288;53.046;5.668;2023-02-03T03:49:28;102166.25;;;8.10;100.00
67099;BME280;54288;53.046;5.668;2023-02-03T03:52:02;102174.13;;;8.11;100.00
67099;BME280;54288;53.046;5.668;2023-02-03T03:54:32;102169.75;;;8.09;100.00
67099;BME280;54288;53.046;5.668;2023-02-03T03:57:08;102186.28;;;8.11;100.00
67099;BME280;54288;53.046;5.668;2023-02-03T03:59:44;102184.41;;;8.01;100.00
67099;BME280;54288;53.046;5.668;2023-02-03T04:02:13;102199.25;;;8.05;100.00
67099;BME280;54288;53.046;5.668;2023-02-03T04:04:43;102196.63;;;8.03;100.00
67099;BME280;54288;53.046;5.668;2023-02-03T04:07:12;102186.97;;;7.96;100.00
67099;BME280;54288;53.046;5.668;2023-02-03T04:09:39;102193.09;;;7.97;100.00
67099;BME280;54288;53.046;5.668;2023-02-03T04:12:23;102178.25;;;7.93;100.00
67099;BME280;54288;53.046;5.668;2023-02-03T04:14:49;102186.94;;;7.95;100.00
67099;BME280;54288;53.046;5.668;2023-02-03T04:17:15;102203.50;;;7.95;100.00
67099;BME280;54288;53.046;5.668;2023-02-03T04:19:46;102198.22;;;7.92;100.00
67099;BME280;54288;53.046;5.668;2023-02-03T04:22:12;102195.63;;;7.92;100.00
67099;BME280;54288;53.046;5.668;2023-02-03T04:24:38;102185.09;;;7.85;100.00
67099;BME280;54288;53.046;5.668;2023-02-03T04:27:04;102190.38;;;7.89;100.00
67099;BME280;54288;53.046;5.668;2023-02-03T04:29:30;102195.53;;;7.86;100.00
67099;BME280;54288;53.046;5.668;2023-02-03T04:31:56;102199.91;;;7.86;100.00
67099;BME280;54288;53.046;5.668;2023-02-03T04:34:22;102196.38;;;7.84;100.00
67099;BME280;54288;53.046;5.668;2023-02-03T04:36:49;102191.19;;;7.82;100.00
67099;BME280;54288;53.046;5.668;2023-02-03T04:39:15;102189.41;;;7.80;100.00
67099;BME280;54288;53.046;5.668;2023-02-03T04:41:41;102192.88;;;7.82;100.00
67099;BME280;54288;53.046;5.668;2023-02-03T04:44:07;102197.28;;;7.84;100.00
67099;BME280;54288;53.046;5.668;2023-02-03T04:46:33;102193.84;;;7.88;100.00
67099;BME280;54288;53.046;5.668;2023-02-03T04:49:00;102207.69;;;7.84;100.00
67099;BME280;54288;53.046;5.668;2023-02-03T04:51:26;102211.22;;;7.88;100.00
67099;BME280;54288;53.046;5.668;2023-02-03T04:53:52;102210.41;;;7.92;100.00
67099;BME280;54288;53.046;5.668;2023-02-03T04:56:18;102209.50;;;7.91;100.00
67099;BME280;54288;53.046;5.668;2023-02-03T04:58:44;102221.75;;;7.95;100.00
67099;BME280;54288;53.046;5.668;2023-02-03T05:01:10;102206.94;;;7.93;100.00
67099;BME280;54288;53.046;5.668;2023-02-03T05:03:36;102215.59;;;7.90;100.00
67099;BME280;54288;53.046;5.668;2023-02-03T05:06:03;102194.72;;;7.89;100.00
67099;BME280;54288;53.046;5.668;2023-02-03T05:08:30;102206.03;;;7.92;100.00
67099;BME280;54288;53.046;5.668;2023-02-03T05:10:56;102199.03;;;7.87;100.00
67099;BME280;54288;53.046;5.668;2023-02-03T05:13:22;102199.00;;;7.85;100.00
67099;BME280;54288;53.046;5.668;2023-02-03T05:15:49;102190.38;;;7.89;100.00
67099;BME280;54288;53.046;5.668;2023-02-03T05:18:15;102200.75;;;7.86;100.00
67099;BME280;54288;53.046;5.668;2023-02-03T05:20:41;102209.50;;;7.91;100.00
67099;BME280;54288;53.046;5.668;2023-02-03T05:23:07;102212.13;;;7.91;100.00
67099;BME280;54288;53.046;5.668;2023-02-03T05:25:34;102211.31;;;7.95;100.00
67099;BME280;54288;53.046;5.668;2023-02-03T05:28:00;102212.19;;;7.97;100.00
67099;BME280;54288;53.046;5.668;2023-02-03T05:30:26;102206.09;;;7.95;100.00
67099;BME280;54288;53.046;5.668;2023-02-03T05:32:52;102196.53;;;7.94;100.00
67099;BME280;54288;53.046;5.668;2023-02-03T05:35:18;102190.44;;;7.95;100.00
67099;BME280;54288;53.046;5.668;2023-02-03T05:37:44;102183.44;;;7.91;100.00
67099;BME280;54288;53.046;5.668;2023-02-03T05:40:12;102199.91;;;7.89;100.00
67099;BME280;54288;53.046;5.668;2023-02-03T05:42:56;102193.00;;;7.91;100.00
67099;BME280;54288;53.046;5.668;2023-02-03T05:45:22;102190.41;;;7.92;100.00
67099;BME280;54288;53.046;5.668;2023-02-03T05:47:48;102179.13;;;7.92;100.00
67099;BME280;54288;53.046;5.668;2023-02-03T05:50:15;102191.31;;;7.94;100.00
67099;BME280;54288;53.046;5.668;2023-02-03T05:52:41;102193.94;;;7.97;100.00
67099;BME280;54288;53.046;5.668;2023-02-03T05:55:07;102200.06;;;8.01;100.00
67099;BME280;54288;53.046;5.668;2023-02-03T05:57:33;102192.25;;;7.99;100.00
67099;BME280;54288;53.046;5.668;2023-02-03T05:59:59;102185.25;;;7.98;100.00
67099;BME280;54288;53.046;5.668;2023-02-03T06:02:25;102201.84;;;8.03;100.00
67099;BME280;54288;53.046;5.668;2023-02-03T06:04:51;102200.94;;;8.01;100.00
67099;BME280;54288;53.046;5.668;2023-02-03T06:07:17;102206.19;;;8.04;100.00
67099;BME280;54288;53.046;5.668;2023-02-03T06:09:43;102200.09;;;8.02;100.00
67099;BME280;54288;53.046;5.668;2023-02-03T06:12:09;102186.22;;;8.06;100.00
67099;BME280;54288;53.046;5.668;2023-02-03T06:14:36;102192.25;;;7.99;100.00
67099;BME280;54288;53.046;5.668;2023-02-03T06:17:02;102189.63;;;7.99;100.00
67099;BME280;54288;53.046;5.668;2023-02-03T06:19:30;102186.06;;;7.93;100.00
67099;BME280;54288;53.046;5.668;2023-02-03T06:22:13;102193.91;;;7.93;100.00
67099;BME280;54288;53.046;5.668;2023-02-03T06:24:38;102190.44;;;7.95;100.00
67099;BME280;54288;53.046;5.668;2023-02-03T06:27:04;102194.78;;;7.95;100.00
67099;BME280;54288;53.046;5.668;2023-02-03T06:29:30;102199.19;;;7.99;100.00
67099;BME280;54288;53.046;5.668;2023-02-03T06:31:56;102198.28;;;7.98;100.00
67099;BME280;54288;53.046;5.668;2023-02-03T06:34:22;102195.72;;;8.00;100.00
67099;BME280;54288;53.046;5.668;2023-02-03T06:36:48;102194.91;;;8.04;100.00
67099;BME280;54288;53.046;5.668;2023-02-03T06:39:14;102199.31;;;8.08;100.00
67099;BME280;54288;53.046;5.668;2023-02-03T06:41:40;102192.31;;;8.08;100.00
67099;BME280;54288;53.046;5.668;2023-02-03T06:44:06;102208.06;;;8.14;100.00
67099;BME280;54288;53.046;5.668;2023-02-03T06:46:32;102195.94;;;8.19;100.00
67099;BME280;54288;53.046;5.668;2023-02-03T06:48:58;102183.75;;;8.18;100.00
67099;BME280;54288;53.046;5.668;2023-02-03T06:51:24;102192.53;;;8.23;100.00
67099;BME280;54288;53.046;5.668;2023-02-03T06:56:31;102210.97;;;8.37;100.00
67099;BME280;54288;53.046;5.668;2023-02-03T06:58:59;102201.34;;;8.33;100.00
67099;BME280;54288;53.046;5.668;2023-02-03T07:01:25;102204.03;;;8.43;100.00
67099;BME280;54288;53.046;5.668;2023-02-03T07:04:16;102206.63;;;8.40;100.00
67099;BME280;54288;53.046;5.668;2023-02-03T07:06:43;102218.78;;;8.38;100.00
67099;BME280;54288;53.046;5.668;2023-02-03T07:09:10;102213.56;;;8.38;100.00
67099;BME280;54288;53.046;5.668;2023-02-03T07:11:36;102214.47;;;8.43;100.00
67099;BME280;54288;53.046;5.668;2023-02-03T07:14:03;102220.53;;;8.38;100.00
67099;BME280;54288;53.046;5.668;2023-02-03T07:16:29;102217.91;;;8.38;100.00
67099;BME280;54288;53.046;5.668;2023-02-03T07:18:56;102212.66;;;8.33;100.00
67099;BME280;54288;53.046;5.668;2023-02-03T07:21:22;102216.13;;;8.34;100.00
67099;BME280;54288;53.046;5.668;2023-02-03T07:23:49;102219.63;;;8.34;100.00
67099;BME280;54288;53.046;5.668;2023-02-03T07:26:16;102246.66;;;8.39;100.00
67099;BME280;54288;53.046;5.668;2023-02-03T07:28:46;102255.38;;;8.43;100.00
67099;BME280;54288;53.046;5.668;2023-02-03T07:31:12;102244.88;;;8.38;100.00
67099;BME280;54288;53.046;5.668;2023-02-03T07:33:38;102237.91;;;8.34;100.00
67099;BME280;54288;53.046;5.668;2023-02-03T07:36:06;102240.44;;;8.30;100.00
67099;BME280;54288;53.046;5.668;2023-02-03T07:38:32;102246.59;;;8.33;100.00
67099;BME280;54288;53.046;5.668;2023-02-03T07:40:58;102233.53;;;8.33;100.00
67099;BME280;54288;53.046;5.668;2023-02-03T07:43:24;102250.13;;;8.40;100.00
67099;BME280;54288;53.046;5.668;2023-02-03T07:45:53;102244.88;;;8.38;100.00
67099;BME280;54288;53.046;5.668;2023-02-03T07:48:19;102251.88;;;8.39;100.00
67099;BME280;54288;53.046;5.668;2023-02-03T07:50:47;102255.38;;;8.41;100.00
67099;BME280;54288;53.046;5.668;2023-02-03T07:53:13;102262.31;;;8.39;100.00
67099;BME280;54288;53.046;5.668;2023-02-03T07:55:40;102266.63;;;8.37;100.00
67099;BME280;54288;53.046;5.668;2023-02-03T07:58:05;102277.09;;;8.39;100.00
67099;BME280;54288;53.046;5.668;2023-02-03T08:00:31;102273.63;;;8.40;100.00
67099;BME280;54288;53.046;5.668;2023-02-03T08:02:57;102269.28;;;8.43;100.00
67099;BME280;54288;53.046;5.668;2023-02-03T08:05:23;102278.00;;;8.44;100.00
67099;BME280;54288;53.046;5.668;2023-02-03T08:07:49;102282.38;;;8.45;100.00
67099;BME280;54288;53.046;5.668;2023-02-03T08:10:15;102279.78;;;8.46;100.00
67099;BME280;54288;53.046;5.668;2023-02-03T08:12:54;102302.47;;;8.52;100.00
67099;BME280;54288;53.046;5.668;2023-02-03T08:15:23;102298.16;;;8.54;100.00
67099;BME280;54288;53.046;5.668;2023-02-03T08:17:50;102311.22;;;8.54;100.00
67099;BME280;54288;53.046;5.668;2023-02-03T08:20:16;102308.50;;;8.46;100.00
67099;BME280;54288;53.046;5.668;2023-02-03T08:22:43;102310.22;;;8.46;100.00
67099;BME280;54288;53.046;5.668;2023-02-03T08:25:10;102319.75;;;8.42;100.00
67099;BME280;54288;53.046;5.668;2023-02-03T08:27:37;102329.34;;;8.43;100.00
67099;BME280;54288;53.046;5.668;2023-02-03T08:30:05;102319.75;;;8.42;100.00
67099;BME280;54288;53.046;5.668;2023-02-03T08:32:33;102326.63;;;8.34;100.00
67099;BME280;54288;53.046;5.668;2023-02-03T08:34:59;102331.84;;;8.34;100.00
67099;BME280;54288;53.046;5.668;2023-02-03T08:37:25;102329.22;;;8.36;100.00
67099;BME280;54288;53.046;5.668;2023-02-03T08:39:52;102336.22;;;8.38;100.00
67099;BME280;54288;53.046;5.668;2023-02-03T08:42:19;102340.53;;;8.35;100.00
67099;BME280;54288;53.046;5.668;2023-02-03T08:44:45;102338.91;;;8.41;100.00
67099;BME280;54288;53.046;5.668;2023-02-03T08:47:11;102330.09;;;8.35;100.00
67099;BME280;54288;53.046;5.668;2023-02-03T08:49:38;102335.34;;;8.36;100.00
67099;BME280;54288;53.046;5.668;2023-02-03T08:52:05;102347.50;;;8.34;100.00
67099;BME280;54288;53.046;5.668;2023-02-03T08:54:32;102344.91;;;8.36;100.00
67099;BME280;54288;53.046;5.668;2023-02-03T08:56:58;102348.41;;;8.36;100.00
67099;BME280;54288;53.046;5.668;2023-02-03T08:59:25;102354.50;;;8.38;100.00
67099;BME280;54288;53.046;5.668;2023-02-03T09:01:51;102347.50;;;8.33;100.00
67099;BME280;54288;53.046;5.668;2023-02-03T09:04:18;102357.91;;;8.31;100.00
67099;BME280;54288;53.046;5.668;2023-02-03T09:06:50;102348.34;;;8.32;100.00
67099;BME280;54288;53.046;5.668;2023-02-03T09:09:19;102364.91;;;8.34;100.00
67099;BME280;54288;53.046;5.668;2023-02-03T09:11:45;102371.88;;;8.36;100.00
67099;BME280;54288;53.046;5.668;2023-02-03T09:14:15;102376.28;;;8.39;100.00
67099;BME280;54288;53.046;5.668;2023-02-03T09:16:42;102370.16;;;8.37;100.00
67099;BME280;54288;53.046;5.668;2023-02-03T09:19:08;102387.56;;;8.38;100.00
67099;BME280;54288;53.046;5.668;2023-02-03T09:21:36;102373.63;;;8.37;100.00
67099;BME280;54288;53.046;5.668;2023-02-03T09:24:17;102385.88;;;8.41;100.00
67099;BME280;54288;53.046;5.668;2023-02-03T09:26:44;102375.41;;;8.40;100.00
67099;BME280;54288;53.046;5.668;2023-02-03T09:29:14;102379.78;;;8.41;100.00
67099;BME280;54288;53.046;5.668;2023-02-03T09:31:53;102390.22;;;8.41;100.00
67099;BME280;54288;53.046;5.668;2023-02-03T09:34:21;102402.47;;;8.45;100.00
67099;BME280;54288;53.046;5.668;2023-02-03T09:36:48;102402.44;;;8.43;100.00
67099;BME280;54288;53.046;5.668;2023-02-03T09:39:19;102416.38;;;8.47;100.00
67099;BME280;54288;53.046;5.668;2023-02-03T09:42:13;102414.78;;;8.55;100.00
67099;BME280;54288;53.046;5.668;2023-02-03T09:45:25;102423.47;;;8.55;100.00
67099;BME280;54288;53.046;5.668;2023-02-03T09:48:01;102410.41;;;8.55;100.00
67099;BME280;54288;53.046;5.668;2023-02-03T09:50:38;102417.44;;;8.59;100.00
67099;BME280;54288;53.046;5.668;2023-02-03T09:53:38;102427.00;;;8.59;100.00
67099;BME280;54288;53.046;5.668;2023-02-03T09:56:28;102422.69;;;8.61;100.00
67099;BME280;54288;53.046;5.668;2023-02-03T09:59:04;102417.50;;;8.65;100.00
67099;BME280;54288;53.046;5.668;2023-02-03T10:02:16;102422.78;;;8.68;100.00
67099;BME280;54288;53.046;5.668;2023-02-03T10:17:05;102460.38;;;8.82;100.00
67099;BME280;54288;53.046;5.668;2023-02-03T10:27:43;102489.25;;;8.93;100.00
67099;BME280;54288;53.046;5.668;2023-02-03T10:30:20;102489.19;;;8.88;100.00
67099;BME280;54288;53.046;5.668;2023-02-03T10:32:59;102493.47;;;8.83;100.00
67099;BME280;54288;53.046;5.668;2023-02-03T10:36:03;102494.41;;;8.85;100.00
67099;BME280;54288;53.046;5.668;2023-02-03T10:40:10;102518.88;;;8.93;100.00
67099;BME280;54288;53.046;5.668;2023-02-03T10:42:27;102504.03;;;8.91;100.00
67099;BME280;54288;53.046;5.668;2023-02-03T10:51:31;102515.38;;;8.91;100.00
67099;BME280;54288;53.046;5.668;2023-02-03T10:54:31;102528.50;;;8.97;100.00
67099;BME280;54288;53.046;5.668;2023-02-03T10:57:13;102520.69;;;8.97;100.00
67099;BME280;54288;53.046;5.668;2023-02-03T11:06:15;102539.06;;;9.05;100.00
67099;BME280;54288;53.046;5.668;2023-02-03T11:08:53;102539.97;;;9.10;100.00
67099;BME280;54288;53.046;5.668;2023-02-03T11:11:25;102554.91;;;9.20;100.00
67099;BME280;54288;53.046;5.668;2023-02-03T11:14:42;102540.94;;;9.16;100.00
67099;BME280;54288;53.046;5.668;2023-02-03T11:38:00;102573.78;;;8.98;100.00
67099;BME280;54288;53.046;5.668;2023-02-03T11:40:42;102567.66;;;8.94;100.00
67099;BME280;54288;53.046;5.668;2023-02-03T11:56:55;102567.91;;;9.14;100.00
67099;BME280;54288;53.046;5.668;2023-02-03T12:32:53;102610.38;;;8.98;100.00
67099;BME280;54288;53.046;5.668;2023-02-03T12:35:32;102620.84;;;8.99;100.00
67099;BME280;54288;53.046;5.668;2023-02-03T12:38:25;102620.94;;;9.05;100.00
67099;BME280;54288;53.046;5.668;2023-02-03T12:40:59;102626.09;;;9.01;100.00
67099;BME280;54288;53.046;5.668;2023-02-03T12:43:36;102629.56;;;9.01;100.00
67099;BME280;54288;53.046;5.668;2023-02-03T12:46:29;102640.81;;;8.94;100.00
67099;BME280;54288;53.046;5.668;2023-02-03T12:49:04;102640.78;;;8.91;100.00
67099;BME280;54288;53.046;5.668;2023-02-03T12:57:26;102639.03;;;8.90;100.00
67099;BME280;54288;53.046;5.668;2023-02-03T13:00:05;102637.31;;;8.92;100.00
67099;BME280;54288;53.046;5.668;2023-02-03T13:03:01;102631.25;;;8.95;100.00
67099;BME280;54288;53.046;5.668;2023-02-03T13:14:03;102649.38;;;8.86;100.00
67099;BME280;54288;53.046;5.668;2023-02-03T13:16:38;102637.03;;;8.74;100.00
67099;BME280;54288;53.046;5.668;2023-02-03T13:19:19;102643.13;;;8.73;100.00
67099;BME280;54288;53.046;5.668;2023-02-03T13:21:49;102639.56;;;8.71;100.00
67099;BME280;54288;53.046;5.668;2023-02-03T13:24:16;102645.59;;;8.67;100.00
67099;BME280;54288;53.046;5.668;2023-02-03T13:43:42;102674.28;;;8.64;100.00
67099;BME280;54288;53.046;5.668;2023-02-03T17:15:50;102898.69;;;6.79;100.00
67099;BME280;54288;53.046;5.668;2023-02-03T17:21:22;102893.44;;;6.76;100.00
67099;BME280;54288;53.046;5.668;2023-02-03T17:23:48;102906.41;;;6.75;100.00
67099;BME280;54288;53.046;5.668;2023-02-03T17:46:14;102936.22;;;6.86;100.00
67099;BME280;54288;53.046;5.668;2023-02-03T18:00:25;102953.06;;;6.98;100.00
67099;BME280;54288;53.046;5.668;2023-02-03T18:02:51;102964.34;;;6.99;100.00
67099;BME280;54288;53.046;5.668;2023-02-03T18:05:18;102967.84;;;6.99;100.00
67099;BME280;54288;53.046;5.668;2023-02-03T18:07:44;102967.00;;;7.00;100.00
67099;BME280;54288;53.046;5.668;2023-02-03T18:32:48;102996.50;;;6.99;100.00
67099;BME280;54288;53.046;5.668;2023-02-03T18:35:15;102993.78;;;6.95;100.00
67099;BME280;54288;53.046;5.668;2023-02-03T18:37:42;102990.22;;;6.93;100.00
67099;BME280;54288;53.046;5.668;2023-02-03T18:45:39;103009.47;;;6.98;100.00
67099;BME280;54288;53.046;5.668;2023-02-03T18:50:43;103003.25;;;6.91;100.00
67099;BME280;54288;53.046;5.668;2023-02-03T19:05:39;103002.91;;;6.81;100.00
67099;BME280;54288;53.046;5.668;2023-02-03T19:08:05;103002.13;;;6.83;100.00
67099;BME280;54288;53.046;5.668;2023-02-03T19:21:19;103020.34;;;6.83;100.00
67099;BME280;54288;53.046;5.668;2023-02-03T19:23:46;103026.47;;;6.85;100.00
67099;BME280;54288;53.046;5.668;2023-02-03T19:34:05;103040.31;;;6.83;100.00
67099;BME280;54288;53.046;5.668;2023-02-03T19:36:31;103042.06;;;6.84;100.00
67099;BME280;54288;53.046;5.668;2023-02-03T19:55:49;103087.03;;;6.78;100.00
67099;BME280;54288;53.046;5.668;2023-02-03T19:58:15;103083.50;;;6.76;100.00
67099;BME280;54288;53.046;5.668;2023-02-03T20:00:42;103083.56;;;6.78;100.00
67099;BME280;54288;53.046;5.668;2023-02-03T20:03:08;103091.31;;;6.76;100.00
67099;BME280;54288;53.046;5.668;2023-02-03T20:05:35;103107.00;;;6.78;100.00
67099;BME280;54288;53.046;5.668;2023-02-03T20:08:04;103112.19;;;6.78;100.00
67099;BME280;54288;53.046;5.668;2023-02-03T20:10:30;103120.97;;;6.81;100.00
67099;BME280;54288;53.046;5.668;2023-02-03T20:12:57;103122.00;;;6.86;100.00
67099;BME280;54288;53.046;5.668;2023-02-03T20:21:18;103129.81;;;6.86;100.00
67099;BME280;54288;53.046;5.668;2023-02-03T20:27:29;103133.25;;;6.85;100.00
67099;BME280;54288;53.046;5.668;2023-02-03T20:29:58;103144.59;;;6.87;100.00
67099;BME280;54288;53.046;5.668;2023-02-03T20:43:31;103160.28;;;6.89;100.00
67099;BME280;54288;53.046;5.668;2023-02-03T20:45:58;103161.16;;;6.89;100.00
67099;BME280;54288;53.046;5.668;2023-02-03T20:56:31;103166.28;;;6.86;100.00
67099;BME280;54288;53.046;5.668;2023-02-03T21:22:26;103176.69;;;6.86;100.00
67099;BME280;54288;53.046;5.668;2023-02-03T21:24:56;103179.25;;;6.85;100.00
67099;BME280;54288;53.046;5.668;2023-02-03T21:27:31;103185.25;;;6.82;100.00
67099;BME280;54288;53.046;5.668;2023-02-03T21:30:09;103184.41;;;6.83;100.00
67099;BME280;54288;53.046;5.668;2023-02-03T21:32:47;103200.22;;;6.89;100.00
67099;BME280;54288;53.046;5.668;2023-02-03T21:35:34;103194.16;;;6.89;100.00
67099;BME280;54288;53.046;5.668;2023-02-03T21:38:28;103199.44;;;6.92;100.00
67099;BME280;54288;53.046;5.668;2023-02-03T21:40:57;103204.75;;;6.95;100.00
67099;BME280;54288;53.046;5.668;2023-02-03T21:43:25;103210.09;;;6.99;100.00
67099;BME280;54288;53.046;5.668;2023-02-03T21:45:52;103194.34;;;6.96;100.00
67099;BME280;54288;53.046;5.668;2023-02-03T21:49:10;103197.91;;;6.98;100.00
67099;BME280;54288;53.046;5.668;2023-02-03T22:05:03;103191.72;;;6.95;100.00
67099;BME280;54288;53.046;5.668;2023-02-03T22:07:48;103189.84;;;6.91;100.00
67099;BME280;54288;53.046;5.668;2023-02-03T22:14:00;103193.44;;;6.94;100.00
67099;BME280;54288;53.046;5.668;2023-02-03T22:19:32;103201.13;;;6.90;100.00
67099;BME280;54288;53.046;5.668;2023-02-03T22:27:23;103219.19;;;6.85;100.00
67099;BME280;54288;53.046;5.668;2023-02-03T22:29:52;103217.38;;;6.83;100.00
67099;BME280;54288;53.046;5.668;2023-02-03T22:35:05;103237.41;;;6.85;100.00
67099;BME280;54288;53.046;5.668;2023-02-03T22:49:16;103251.81;;;6.74;100.00
67099;BME280;54288;53.046;5.668;2023-02-03T22:57:19;103270.91;;;6.75;100.00